createdAt,value
2018-09-22T06:34:18.281Z,99.90
2018-09-22T06:36:46.527Z,99.90
2018-09-22T06:39:14.752Z,99.90
2018-09-22T06:41:42.994Z,99.90
2018-09-22T06:44:11.222Z,99.90
2018-09-22T06:46:39.460Z,99.90
2018-09-22T06:49:07.691Z,99.90
2018-09-22T06:51:35.963Z,99.90
2018-09-22T06:54:04.204Z,99.90
2018-09-22T06:56:32.468Z,99.90
2018-09-22T06:59:00.683Z,99.90
2018-09-22T07:01:28.928Z,99.90
2018-09-22T07:03:57.163Z,99.90
2018-09-22T07:06:25.432Z,99.90
2018-09-22T07:08:53.800Z,99.90
2018-09-22T07:11:22.153Z,99.90
2018-09-22T07:13:50.386Z,99.90
2018-09-22T07:16:18.651Z,99.90
2018-09-22T07:18:46.883Z,99.90
2018-09-22T07:21:15.136Z,99.90
2018-09-22T07:23:43.379Z,99.90
2018-09-22T07:26:11.657Z,99.90
2018-09-22T07:28:39.891Z,99.90
2018-09-22T07:31:08.322Z,99.90
2018-09-22T07:33:36.556Z,99.90
2018-09-22T07:36:04.880Z,99.90
2018-09-22T07:38:33.115Z,99.90
2018-09-22T07:41:01.340Z,99.90
2018-09-22T07:43:29.586Z,99.90
2018-09-22T07:45:57.823Z,99.90
2018-09-22T07:48:26.062Z,99.90
2018-09-22T07:50:54.292Z,99.90
2018-09-22T07:53:22.546Z,99.90
2018-09-22T07:55:50.776Z,99.90
2018-09-22T07:58:19.023Z,99.90
2018-09-22T08:00:47.257Z,99.90
2018-09-22T08:03:15.499Z,99.90
2018-09-22T08:05:43.736Z,99.90
2018-09-22T08:08:11.995Z,99.90
2018-09-22T08:10:40.228Z,99.90
2018-09-22T08:13:08.476Z,99.90
2018-09-22T08:15:36.699Z,99.90
2018-09-22T08:18:04.949Z,99.90
2018-09-22T08:20:33.176Z,99.90
2018-09-22T08:23:01.422Z,99.90
2018-09-22T08:25:29.671Z,99.90
2018-09-22T08:27:57.915Z,99.90
2018-09-22T08:30:26.167Z,99.90
2018-09-22T08:32:54.419Z,99.90
2018-09-22T08:35:22.652Z,99.90
2018-09-22T08:37:50.904Z,99.90
2018-09-22T08:40:19.128Z,99.90
2018-09-22T08:42:47.371Z,99.90
2018-09-22T08:45:15.875Z,99.90
2018-09-22T08:47:44.125Z,99.90
2018-09-22T08:50:12.388Z,99.90
2018-09-22T08:52:40.648Z,99.90
2018-09-22T08:55:08.981Z,99.90
2018-09-22T08:57:37.332Z,99.90
2018-09-22T09:00:05.607Z,99.90
2018-09-22T09:02:33.853Z,99.90
2018-09-22T09:05:02.174Z,99.90
2018-09-22T09:07:30.371Z,99.90
2018-09-22T09:09:58.601Z,99.90
2018-09-22T09:12:26.872Z,99.90
2018-09-22T09:14:55.114Z,99.90
2018-09-22T09:17:23.356Z,99.90
2018-09-22T09:19:51.600Z,99.90
2018-09-22T09:22:19.856Z,99.90
2018-09-22T09:24:48.108Z,99.90
2018-09-22T09:27:16.376Z,99.90
2018-09-22T09:29:44.616Z,99.90
2018-09-22T09:32:16.748Z,99.90
2018-09-22T09:34:45.676Z,99.90
2018-09-22T09:37:13.927Z,99.90
2018-09-22T09:39:42.163Z,99.90
2018-09-22T09:42:10.400Z,99.90
2018-09-22T09:44:38.646Z,99.90
2018-09-22T09:47:06.893Z,99.90
2018-09-22T09:49:35.152Z,99.90
2018-09-22T09:52:03.368Z,99.90
2018-09-22T09:54:31.687Z,99.90
2018-09-22T09:56:59.895Z,99.90
2018-09-22T09:59:28.139Z,99.90
2018-09-22T10:01:56.378Z,99.90
2018-09-22T10:04:24.680Z,99.90
2018-09-22T10:06:53.285Z,99.90
2018-09-22T10:09:21.534Z,99.90
2018-09-22T10:11:49.911Z,99.90
2018-09-22T10:14:18.181Z,99.90
2018-09-22T10:16:46.416Z,98.80
2018-09-22T10:19:14.663Z,99.90
2018-09-22T10:21:42.895Z,99.90
2018-09-22T10:24:11.154Z,99.20
2018-09-22T10:26:39.496Z,99.90
2018-09-22T10:29:07.783Z,99.90
2018-09-22T10:31:36.464Z,99.90
2018-09-22T10:34:04.716Z,99.90
2018-09-22T10:36:32.941Z,99.90
2018-09-22T10:39:01.195Z,99.40
2018-09-22T10:41:29.448Z,99.10
2018-09-22T10:43:57.693Z,99.90
2018-09-22T10:46:25.928Z,99.90
2018-09-22T10:48:54.180Z,97.00
2018-09-22T10:51:22.416Z,97.80
2018-09-22T10:53:50.671Z,99.20
2018-09-22T10:56:18.895Z,99.40
2018-09-22T10:58:47.184Z,99.40
2018-09-22T11:01:15.450Z,99.90
2018-09-22T11:03:43.689Z,99.90
2018-09-22T11:06:11.925Z,99.20
2018-09-22T11:08:40.192Z,99.90
2018-09-22T11:11:08.430Z,99.80
2018-09-22T11:13:36.677Z,98.20
2018-09-22T11:16:04.895Z,99.10
2018-09-22T11:18:33.177Z,97.80
2018-09-22T11:21:01.415Z,97.50
2018-09-22T11:23:29.679Z,99.70
2018-09-22T11:25:57.908Z,99.10
2018-09-22T11:28:26.180Z,99.00
2018-09-22T11:30:54.400Z,98.90
2018-09-22T11:33:22.632Z,98.30
2018-09-22T11:35:50.890Z,98.40
2018-09-22T11:38:19.149Z,98.40
2018-09-22T11:40:47.388Z,97.70
2018-09-22T11:43:15.644Z,97.30
2018-09-22T11:45:43.892Z,97.00
2018-09-22T11:48:12.636Z,97.20
2018-09-22T11:50:40.883Z,97.90
2018-09-22T11:53:09.108Z,96.70
2018-09-22T11:55:37.359Z,97.90
2018-09-22T11:58:05.619Z,99.70
2018-09-22T12:00:33.872Z,96.90
2018-09-22T12:03:02.090Z,98.20
2018-09-22T12:05:30.343Z,95.70
2018-09-22T12:07:58.564Z,95.70
2018-09-22T12:10:26.899Z,96.20
2018-09-22T12:12:55.184Z,96.80
2018-09-22T12:15:23.428Z,95.80
2018-09-22T12:17:51.668Z,96.70
2018-09-22T12:20:19.929Z,96.40
2018-09-22T12:22:48.220Z,96.90
2018-09-22T12:25:16.507Z,95.00
2018-09-22T12:27:44.740Z,94.20
2018-09-22T12:30:12.993Z,94.50
2018-09-22T12:32:41.233Z,94.00
2018-09-22T12:35:09.473Z,94.40
2018-09-22T12:37:37.712Z,95.60
2018-09-22T12:40:06.059Z,94.60
2018-09-22T12:42:34.299Z,93.20
2018-09-22T12:45:02.548Z,95.20
2018-09-22T12:47:30.793Z,93.90
2018-09-22T12:49:59.041Z,93.40
2018-09-22T12:52:27.792Z,92.40
2018-09-22T12:54:56.227Z,93.40
2018-09-22T12:57:24.469Z,93.00
2018-09-22T12:59:52.761Z,93.60
2018-09-22T13:02:21.012Z,92.70
2018-09-22T13:04:49.295Z,91.10
2018-09-22T13:07:17.800Z,91.30
2018-09-22T13:09:46.076Z,92.00
2018-09-22T13:12:14.308Z,91.30
2018-09-22T13:14:42.587Z,91.60
2018-09-22T13:17:10.819Z,91.30
2018-09-22T13:19:39.108Z,92.80
2018-09-22T13:22:07.574Z,90.00
2018-09-22T13:24:35.842Z,89.50
2018-09-22T13:27:04.109Z,86.30
2018-09-22T13:29:32.360Z,88.60
2018-09-22T13:32:00.640Z,89.30
2018-09-22T13:34:29.047Z,84.90
2018-09-22T13:36:57.380Z,81.70
2018-09-22T13:39:25.624Z,85.90
2018-09-22T13:41:53.880Z,86.50
2018-09-22T13:44:22.118Z,85.40
2018-09-22T13:46:50.369Z,86.40
2018-09-22T13:49:18.588Z,81.70
2018-09-22T13:51:46.848Z,82.70
2018-09-22T13:54:15.096Z,79.50
2018-09-22T13:56:43.357Z,80.90
2018-09-22T13:59:11.596Z,81.20
2018-09-22T14:01:39.883Z,82.90
2018-09-22T14:04:08.089Z,84.30
2018-09-22T14:06:36.341Z,82.20
2018-09-22T14:09:07.909Z,83.80
2018-09-22T14:11:36.163Z,83.60
2018-09-22T14:14:04.435Z,80.50
2018-09-22T14:16:32.676Z,80.40
2018-09-22T14:19:01.014Z,80.60
2018-09-22T14:21:29.295Z,81.80
2018-09-22T14:23:57.514Z,82.70
2018-09-22T14:26:25.795Z,80.10
2018-09-22T14:28:54.048Z,80.50
2018-09-22T14:31:22.312Z,80.20
2018-09-22T14:33:50.549Z,81.90
2018-09-22T14:36:18.836Z,79.40
2018-09-22T14:38:47.275Z,77.80
2018-09-22T14:41:15.523Z,78.40
2018-09-22T14:43:43.761Z,77.40
2018-09-22T14:46:12.009Z,78.80
2018-09-22T14:48:40.241Z,78.50
2018-09-22T14:51:08.481Z,80.10
2018-09-22T14:53:36.727Z,78.40
2018-09-22T14:56:04.996Z,77.40
2018-09-22T14:58:33.268Z,80.90
2018-09-22T15:01:01.520Z,80.30
2018-09-22T15:03:29.775Z,80.40
2018-09-22T15:05:58.022Z,82.70
2018-09-22T15:08:26.448Z,81.80
2018-09-22T15:10:54.730Z,80.30
2018-09-22T15:13:23.191Z,80.30
2018-09-22T15:15:51.424Z,83.80
2018-09-22T15:18:19.654Z,82.60
2018-09-22T15:20:47.895Z,82.10
2018-09-22T15:23:16.223Z,82.10
2018-09-22T15:25:45.069Z,84.00
2018-09-22T15:28:13.333Z,83.20
2018-09-22T15:30:41.560Z,81.90
2018-09-22T15:33:09.859Z,82.30
2018-09-22T15:35:38.116Z,82.40
2018-09-22T15:38:06.431Z,85.30
2018-09-22T15:40:34.672Z,83.70
2018-09-22T15:43:02.976Z,82.40
2018-09-22T15:45:31.273Z,85.30
2018-09-22T15:47:59.506Z,84.60
2018-09-22T15:50:27.756Z,86.10
2018-09-22T15:52:56.027Z,85.80
2018-09-22T15:55:24.260Z,86.40
2018-09-22T15:57:52.528Z,89.30
2018-09-22T16:00:20.769Z,88.90
2018-09-22T16:02:49.040Z,87.90
2018-09-22T16:05:17.336Z,88.90
2018-09-22T16:07:45.601Z,87.50
2018-09-22T16:10:13.836Z,89.80
2018-09-22T16:12:42.232Z,90.20
2018-09-22T16:15:10.460Z,88.60
2018-09-22T16:17:38.721Z,90.50
2018-09-22T16:20:07.026Z,87.60
2018-09-22T16:22:35.320Z,86.60
2018-09-22T16:25:03.584Z,87.90
2018-09-22T16:27:31.848Z,87.60
2018-09-22T16:30:00.112Z,87.00
2018-09-22T16:32:29.175Z,88.60
2018-09-22T16:34:57.414Z,90.80
2018-09-22T16:37:25.676Z,91.00
2018-09-22T16:39:53.912Z,90.40
2018-09-22T16:42:22.177Z,90.70
2018-09-22T16:44:50.412Z,90.20
2018-09-22T16:47:18.656Z,90.70
2018-09-22T16:49:46.895Z,91.60
2018-09-22T16:52:15.183Z,90.50
2018-09-22T16:54:43.424Z,90.90
2018-09-22T16:57:11.673Z,91.80
2018-09-22T16:59:39.925Z,91.60
2018-09-22T17:02:08.184Z,91.70
2018-09-22T17:04:36.430Z,91.50
2018-09-22T17:07:04.685Z,92.50
2018-09-22T17:09:32.989Z,92.20
2018-09-22T17:12:01.232Z,92.90
2018-09-22T17:14:29.489Z,92.80
2018-09-22T17:16:57.839Z,92.60
2018-09-22T17:19:26.104Z,92.50
2018-09-22T17:21:54.328Z,93.20
2018-09-22T17:24:22.740Z,92.90
2018-09-22T17:26:50.995Z,93.40
2018-09-22T17:29:19.267Z,93.30
2018-09-22T17:31:47.521Z,93.00
2018-09-22T17:34:15.832Z,93.20
2018-09-22T17:36:44.069Z,93.80
2018-09-22T17:39:12.328Z,93.00
2018-09-22T17:41:40.575Z,93.10
2018-09-22T17:44:08.828Z,93.10
2018-09-22T17:46:37.060Z,92.70
2018-09-22T17:49:05.308Z,93.00
2018-09-22T17:51:33.560Z,93.00
2018-09-22T17:54:01.821Z,93.40
2018-09-22T17:56:30.043Z,94.10
2018-09-22T17:58:58.275Z,94.50
2018-09-22T18:01:26.552Z,93.40
2018-09-22T18:03:54.811Z,94.00
2018-09-22T18:06:23.032Z,93.50
2018-09-22T18:08:51.273Z,93.40
2018-09-22T18:11:19.512Z,94.40
2018-09-22T18:13:47.759Z,94.20
2018-09-22T18:16:16.000Z,93.90
2018-09-22T18:18:44.252Z,96.10
2018-09-22T18:21:12.485Z,95.20
2018-09-22T18:23:40.740Z,94.20
2018-09-22T18:26:09.050Z,94.60
2018-09-22T18:28:37.304Z,95.40
2018-09-22T18:31:05.568Z,94.50
2018-09-22T18:33:33.827Z,95.30
2018-09-22T18:36:02.072Z,95.00
2018-09-22T18:38:30.320Z,95.10
2018-09-22T18:40:58.556Z,94.60
2018-09-22T18:43:26.813Z,95.20
2018-09-22T18:45:55.043Z,95.60
2018-09-22T18:48:23.463Z,96.00
2018-09-22T18:50:51.791Z,97.80
2018-09-22T18:53:20.040Z,97.10
2018-09-22T18:55:48.263Z,96.10
2018-09-22T18:58:16.520Z,96.80
2018-09-22T19:00:44.744Z,97.30
2018-09-22T19:03:12.992Z,97.40
2018-09-22T19:05:41.212Z,97.90
2018-09-22T19:08:09.483Z,97.70
2018-09-22T19:10:37.731Z,97.50
2018-09-22T19:13:06.972Z,98.30
2018-09-22T19:15:38.416Z,97.20
2018-09-22T19:18:09.960Z,97.50
2018-09-22T19:20:43.535Z,97.70
2018-09-22T19:23:18.492Z,98.50
2018-09-22T19:25:50.369Z,98.30
2018-09-22T19:28:22.829Z,98.30
2018-09-22T19:30:51.792Z,98.60
2018-09-22T19:33:27.984Z,98.60
2018-09-22T19:35:59.448Z,99.00
2018-09-22T19:39:30.701Z,99.90
2018-09-22T19:42:39.396Z,98.10
2018-09-22T19:45:12.728Z,98.00
2018-09-22T19:47:52.684Z,99.10
2018-09-22T19:50:27.509Z,99.50
2018-09-22T19:52:55.742Z,99.20
2018-09-22T19:55:23.993Z,99.90
2018-09-22T19:57:52.270Z,99.90
2018-09-22T20:00:20.504Z,99.90
2018-09-22T20:02:48.767Z,99.90
2018-09-22T20:05:17.000Z,99.90
2018-09-22T20:07:45.223Z,99.90
2018-09-22T20:10:13.472Z,99.90
2018-09-22T20:12:41.707Z,99.90
2018-09-22T20:15:09.964Z,99.90
